sensor_id;sensor_type;location;lat;lon;timestamp;pressure;altitude;pressure_sealevel;temperature;humidity
22930;BME280;11630;42.660;23.292;2022-09-17T00:01:50;69561.96;;;18.43;100.00
22930;BME280;11630;42.660;23.292;2022-09-17T00:04:20;69544.17;;;18.18;100.00
22930;BME280;11630;42.660;23.292;2022-09-17T00:06:52;69535.44;;;18.10;100.00
22930;BME280;11630;42.660;23.292;2022-09-17T00:09:26;69504.19;;;17.91;100.00
22930;BME280;11630;42.660;23.292;2022-09-17T00:12:00;69512.41;;;17.94;100.00
22930;BME280;11630;42.660;23.292;2022-09-17T00:14:29;69504.20;;;17.84;100.00
22930;BME280;11630;42.660;23.292;2022-09-17T00:16:59;69513.77;;;17.96;100.00
22930;BME280;11630;42.660;23.292;2022-09-17T00:19:30;69499.27;;;17.82;100.00
22930;BME280;11630;42.660;23.292;2022-09-17T00:22:00;69532.98;;;18.01;100.00
22930;BME280;11630;42.660;23.292;2022-09-17T00:24:31;69520.09;;;17.96;100.00
22930;BME280;11630;42.660;23.292;2022-09-17T00:27:02;69521.47;;;17.93;100.00
22930;BME280;11630;42.660;23.292;2022-09-17T00:29:33;69534.88;;;18.09;100.00
22930;BME280;11630;42.660;23.292;2022-09-17T00:32:04;69539.27;;;18.11;100.00
22930;BME280;11630;42.660;23.292;2022-09-17T00:34:34;69511.05;;;17.89;100.00
22930;BME280;11630;42.660;23.292;2022-09-17T00:37:05;69555.19;;;18.23;100.00
22930;BME280;11630;42.660;23.292;2022-09-17T00:39:36;69509.67;;;17.89;100.00
22930;BME280;11630;42.660;23.292;2022-09-17T00:42:08;69531.86;;;18.08;100.00
22930;BME280;11630;42.660;23.292;2022-09-17T00:44:51;69531.32;;;18.05;100.00
22930;BME280;11630;42.660;23.292;2022-09-17T00:47:41;69551.31;;;18.27;100.00
22930;BME280;11630;42.660;23.292;2022-09-17T00:50:11;69583.67;;;18.46;100.00
22930;BME280;11630;42.660;23.292;2022-09-17T00:52:44;69534.06;;;18.05;100.00
22930;BME280;11630;42.660;23.292;2022-09-17T00:55:22;69513.27;;;17.86;100.00
22930;BME280;11630;42.660;23.292;2022-09-17T00:57:54;69518.16;;;17.98;100.00
22930;BME280;11630;42.660;23.292;2022-09-17T01:00:27;69540.11;;;18.08;100.00
22930;BME280;11630;42.660;23.292;2022-09-17T01:02:58;69561.48;;;18.30;100.00
22930;BME280;11630;42.660;23.292;2022-09-17T01:05:31;69552.70;;;18.24;100.00
22930;BME280;11630;42.660;23.292;2022-09-17T01:08:17;69541.72;;;18.22;100.00
22930;BME280;11630;42.660;23.292;2022-09-17T01:11:09;69542.28;;;18.15;100.00
22930;BME280;11630;42.660;23.292;2022-09-17T01:14:12;69526.11;;;18.01;100.00
22930;BME280;11630;42.660;23.292;2022-09-17T01:19:34;69490.27;;;17.68;100.00
22930;BME280;11630;42.660;23.292;2022-09-17T01:22:32;69482.90;;;17.57;100.00
22930;BME280;11630;42.660;23.292;2022-09-17T01:25:21;69466.73;;;17.46;100.00
22930;BME280;11630;42.660;23.292;2022-09-17T01:36:41;69522.00;;;17.99;100.00
22930;BME280;11630;42.660;23.292;2022-09-17T01:39:16;69520.33;;;18.05;100.00
22930;BME280;11630;42.660;23.292;2022-09-17T01:42:03;69553.78;;;18.28;100.00
22930;BME280;11630;42.660;23.292;2022-09-17T01:47:34;69576.77;;;18.53;100.00
22930;BME280;11630;42.660;23.292;2022-09-17T01:50:09;69571.34;;;18.39;100.00
22930;BME280;11630;42.660;23.292;2022-09-17T01:52:40;69554.33;;;18.31;100.00
22930;BME280;11630;42.660;23.292;2022-09-17T01:55:15;69517.09;;;17.92;100.00
22930;BME280;11630;42.660;23.292;2022-09-17T01:58:01;69521.77;;;17.90;100.00
22930;BME280;11630;42.660;23.292;2022-09-17T02:00:27;69514.06;;;17.93;100.00
22930;BME280;11630;42.660;23.292;2022-09-17T02:06:16;69531.59;;;18.09;100.00
22930;BME280;11630;42.660;23.292;2022-09-17T02:09:13;69532.69;;;18.10;100.00
22930;BME280;11630;42.660;23.292;2022-09-17T02:11:36;69556.01;;;18.25;100.00
22930;BME280;11630;42.660;23.292;2022-09-17T02:14:09;69522.59;;;17.92;100.00
22930;BME280;11630;42.660;23.292;2022-09-17T02:16:42;69510.80;;;17.85;100.00
22930;BME280;11630;42.660;23.292;2022-09-17T02:19:31;69516.55;;;17.89;100.00
22930;BME280;11630;42.660;23.292;2022-09-17T02:25:24;69507.55;;;17.74;100.00
22930;BME280;11630;42.660;23.292;2022-09-17T02:28:06;69508.84;;;17.92;100.00
22930;BME280;11630;42.660;23.292;2022-09-17T02:30:36;69511.61;;;17.89;100.00
22930;BME280;11630;42.660;23.292;2022-09-17T02:33:07;69515.45;;;17.88;100.00
22930;BME280;11630;42.660;23.292;2022-09-17T02:35:38;69504.75;;;17.84;100.00
22930;BME280;11630;42.660;23.292;2022-09-17T02:38:11;69530.77;;;18.07;100.00
22930;BME280;11630;42.660;23.292;2022-09-17T02:40:46;69520.37;;;17.97;100.00
22930;BME280;11630;42.660;23.292;2022-09-17T02:43:30;69524.17;;;18.06;100.00
22930;BME280;11630;42.660;23.292;2022-09-17T02:51:50;69495.20;;;17.72;100.00
22930;BME280;11630;42.660;23.292;2022-09-17T02:57:22;69467.28;;;17.47;100.00
22930;BME280;11630;42.660;23.292;2022-09-17T03:02:46;69491.95;;;17.62;100.00
22930;BME280;11630;42.660;23.292;2022-09-17T03:05:13;69494.10;;;17.71;100.00
22930;BME280;11630;42.660;23.292;2022-09-17T03:07:44;69504.50;;;17.80;100.00
22930;BME280;11630;42.660;23.292;2022-09-17T03:10:15;69487.54;;;17.65;100.00
22930;BME280;11630;42.660;23.292;2022-09-17T03:12:46;69477.38;;;17.62;100.00
22930;BME280;11630;42.660;23.292;2022-09-17T03:15:16;69497.13;;;17.70;100.00
22930;BME280;11630;42.660;23.292;2022-09-17T03:17:47;69485.94;;;17.49;100.00
22930;BME280;11630;42.660;23.292;2022-09-17T03:20:20;69478.48;;;17.61;100.00
22930;BME280;11630;42.660;23.292;2022-09-17T03:22:51;69507.51;;;17.82;100.00
22930;BME280;11630;42.660;23.292;2022-09-17T03:25:22;69493.83;;;17.72;100.00
22930;BME280;11630;42.660;23.292;2022-09-17T03:27:53;69509.42;;;17.85;100.00
22930;BME280;11630;42.660;23.292;2022-09-17T03:30:24;69503.42;;;17.74;100.00
22930;BME280;11630;42.660;23.292;2022-09-17T03:32:54;69480.95;;;17.59;100.00
22930;BME280;11630;42.660;23.292;2022-09-17T03:35:26;69499.32;;;17.72;100.00
22930;BME280;11630;42.660;23.292;2022-09-17T03:37:57;69495.20;;;17.72;100.00
22930;BME280;11630;42.660;23.292;2022-09-17T03:40:28;69505.89;;;17.78;100.00
22930;BME280;11630;42.660;23.292;2022-09-17T03:42:59;69488.63;;;17.69;100.00
22930;BME280;11630;42.660;23.292;2022-09-17T03:45:30;69497.94;;;17.74;100.00
22930;BME280;11630;42.660;23.292;2022-09-17T03:48:03;69523.66;;;17.98;100.00
22930;BME280;11630;42.660;23.292;2022-09-17T03:50:32;69513.03;;;17.77;100.00
22930;BME280;11630;42.660;23.292;2022-09-17T03:53:04;69521.77;;;17.90;100.00
22930;BME280;11630;42.660;23.292;2022-09-17T03:55:36;69511.06;;;17.86;100.00
22930;BME280;11630;42.660;23.292;2022-09-17T03:58:07;69524.50;;;17.95;100.00
22930;BME280;11630;42.660;23.292;2022-09-17T04:00:37;69525.30;;;17.97;100.00
22930;BME280;11630;42.660;23.292;2022-09-17T04:03:09;69532.41;;;18.08;100.00
22930;BME280;11630;42.660;23.292;2022-09-17T04:05:40;69550.80;;;18.14;100.00
22930;BME280;11630;42.660;23.292;2022-09-17T04:08:11;69546.66;;;18.16;100.00
22930;BME280;11630;42.660;23.292;2022-09-17T04:10:42;69557.10;;;18.23;100.00
22930;BME280;11630;42.660;23.292;2022-09-17T04:13:14;69539.25;;;18.16;100.00
22930;BME280;11630;42.660;23.292;2022-09-17T04:15:46;69528.02;;;18.07;100.00
22930;BME280;11630;42.660;23.292;2022-09-17T04:18:17;69525.88;;;17.95;100.00
22930;BME280;11630;42.660;23.292;2022-09-17T04:20:47;69528.88;;;17.99;100.00
22930;BME280;11630;42.660;23.292;2022-09-17T04:23:18;69545.02;;;18.17;100.00
22930;BME280;11630;42.660;23.292;2022-09-17T04:25:49;69567.49;;;18.38;100.00
22930;BME280;11630;42.660;23.292;2022-09-17T04:28:20;69574.34;;;18.43;100.00
22930;BME280;11630;42.660;23.292;2022-09-17T04:30:51;69592.45;;;18.52;100.00
22930;BME280;11630;42.660;23.292;2022-09-17T04:33:22;69599.80;;;18.67;100.00
22930;BME280;11630;42.660;23.292;2022-09-17T04:35:53;69590.53;;;18.49;100.00
22930;BME280;11630;42.660;23.292;2022-09-17T04:38:24;69557.06;;;18.33;100.00
22930;BME280;11630;42.660;23.292;2022-09-17T04:40:55;69542.28;;;18.15;100.00
22930;BME280;11630;42.660;23.292;2022-09-17T04:43:25;69538.70;;;18.13;100.00
22930;BME280;11630;42.660;23.292;2022-09-17T04:45:55;69530.46;;;18.13;100.00
22930;BME280;11630;42.660;23.292;2022-09-17T04:48:27;69559.55;;;18.32;100.00
22930;BME280;11630;42.660;23.292;2022-09-17T04:50:58;69553.78;;;18.28;100.00
22930;BME280;11630;42.660;23.292;2022-09-17T04:53:28;69571.59;;;18.43;100.00
22930;BME280;11630;42.660;23.292;2022-09-17T04:55:59;69569.66;;;18.45;100.00
22930;BME280;11630;42.660;23.292;2022-09-17T04:58:33;69572.14;;;18.43;100.00
22930;BME280;11630;42.660;23.292;2022-09-17T05:01:03;69618.17;;;18.82;100.00
22930;BME280;11630;42.660;23.292;2022-09-17T05:03:34;69648.84;;;19.15;100.00
22930;BME280;11630;42.660;23.292;2022-09-17T05:06:05;69670.77;;;19.32;100.00
22930;BME280;11630;42.660;23.292;2022-09-17T05:08:36;69680.36;;;19.42;100.00
22930;BME280;11630;42.660;23.292;2022-09-17T05:11:07;69685.58;;;19.46;100.00
22930;BME280;11630;42.660;23.292;2022-09-17T05:13:37;69678.15;;;19.45;100.00
22930;BME280;11630;42.660;23.292;2022-09-17T05:16:08;69697.38;;;19.53;100.00
22930;BME280;11630;42.660;23.292;2022-09-17T05:18:39;69707.53;;;19.61;100.00
22930;BME280;11630;42.660;23.292;2022-09-17T05:21:10;69702.84;;;19.63;100.00
22930;BME280;11630;42.660;23.292;2022-09-17T05:23:41;69700.92;;;19.60;100.00
22930;BME280;11630;42.660;23.292;2022-09-17T05:26:12;69709.16;;;19.67;100.00
22930;BME280;11630;42.660;23.292;2022-09-17T05:28:43;69730.31;;;19.78;100.00
22930;BME280;11630;42.660;23.292;2022-09-17T05:31:14;69732.20;;;19.86;100.00
22930;BME280;11630;42.660;23.292;2022-09-17T05:33:44;69741.27;;;19.90;100.00
22930;BME280;11630;42.660;23.292;2022-09-17T05:36:15;69741.25;;;19.93;100.00
22930;BME280;11630;42.660;23.292;2022-09-17T05:38:46;69779.44;;;20.18;100.00
22930;BME280;11630;42.660;23.292;2022-09-17T05:41:16;69775.52;;;20.27;100.00
22930;BME280;11630;42.660;23.292;2022-09-17T05:43:47;69793.95;;;20.35;100.00
22930;BME280;11630;42.660;23.292;2022-09-17T05:46:20;69815.95;;;20.48;100.00
22930;BME280;11630;42.660;23.292;2022-09-17T05:48:48;69823.30;;;20.63;100.00
22930;BME280;11630;42.660;23.292;2022-09-17T05:51:19;69830.72;;;20.69;100.00
22930;BME280;11630;42.660;23.292;2022-09-17T05:53:52;69842.24;;;20.82;100.00
22930;BME280;11630;42.660;23.292;2022-09-17T05:56:22;69844.98;;;20.84;100.00
22930;BME280;11630;42.660;23.292;2022-09-17T05:58:56;69841.70;;;20.81;100.00
22930;BME280;11630;42.660;23.292;2022-09-17T06:01:27;69835.38;;;20.77;100.00
22930;BME280;11630;42.660;23.292;2022-09-17T06:03:57;69805.20;;;20.47;100.00
22930;BME280;11630;42.660;23.292;2022-09-17T06:06:29;69813.41;;;20.54;100.00
22930;BME280;11630;42.660;23.292;2022-09-17T06:09:02;69791.73;;;20.38;100.00
22930;BME280;11630;42.660;23.292;2022-09-17T06:11:32;69783.48;;;20.33;100.00
22930;BME280;11630;42.660;23.292;2022-09-17T06:14:04;69782.17;;;20.23;100.00
22930;BME280;11630;42.660;23.292;2022-09-17T06:16:34;69803.16;;;20.61;100.00
22930;BME280;11630;42.660;23.292;2022-09-17T06:19:05;69863.05;;;21.08;100.00
22930;BME280;11630;42.660;23.292;2022-09-17T06:21:36;69873.53;;;21.10;100.00
22930;BME280;11630;42.660;23.292;2022-09-17T06:24:08;69869.45;;;21.00;100.00
22930;BME280;11630;42.660;23.292;2022-09-17T06:26:38;69883.48;;;21.09;100.00
22930;BME280;11630;42.660;23.292;2022-09-17T06:29:10;69848.24;;;20.92;100.00
22930;BME280;11630;42.660;23.292;2022-09-17T06:31:40;69877.42;;;21.06;100.00
22930;BME280;11630;42.660;23.292;2022-09-17T06:34:11;69822.48;;;20.64;100.00
22930;BME280;11630;42.660;23.292;2022-09-17T06:36:42;69782.38;;;20.32;100.00
22930;BME280;11630;42.660;23.292;2022-09-17T06:39:13;69806.52;;;20.57;100.00
22930;BME280;11630;42.660;23.292;2022-09-17T06:41:43;69804.08;;;20.48;100.00
22930;BME280;11630;42.660;23.292;2022-09-17T06:44:14;69784.53;;;20.39;100.00
22930;BME280;11630;42.660;23.292;2022-09-17T06:46:44;69799.38;;;20.50;100.00
22930;BME280;11630;42.660;23.292;2022-09-17T06:49:17;69837.28;;;20.82;100.00
22930;BME280;11630;42.660;23.292;2022-09-17T06:51:47;69815.09;;;20.53;100.00
22930;BME280;11630;42.660;23.292;2022-09-17T06:54:18;69798.81;;;20.52;100.00
22930;BME280;11630;42.660;23.292;2022-09-17T06:56:49;69764.55;;;20.17;100.00
22930;BME280;11630;42.660;23.292;2022-09-17T06:59:20;69801.59;;;20.47;100.00
22930;BME280;11630;42.660;23.292;2022-09-17T07:01:51;69847.94;;;20.95;100.00
22930;BME280;11630;42.660;23.292;2022-09-17T07:04:22;69897.66;;;21.34;100.00
22930;BME280;11630;42.660;23.292;2022-09-17T07:06:53;69926.83;;;21.56;100.00
22930;BME280;11630;42.660;23.292;2022-09-17T07:09:24;69955.64;;;21.83;100.00
22930;BME280;11630;42.660;23.292;2022-09-17T07:11:55;69879.52;;;21.23;100.00
22930;BME280;11630;42.660;23.292;2022-09-17T07:14:26;69933.14;;;21.63;100.00
22930;BME280;11630;42.660;23.292;2022-09-17T07:16:57;69911.91;;;21.50;100.00
22930;BME280;11630;42.660;23.292;2022-09-17T07:19:27;69801.88;;;20.46;100.00
22930;BME280;11630;42.660;23.292;2022-09-17T07:21:58;69892.98;;;21.31;100.00
22930;BME280;11630;42.660;23.292;2022-09-17T07:24:29;69930.89;;;21.66;100.00
22930;BME280;11630;42.660;23.292;2022-09-17T07:26:59;69929.51;;;21.66;100.00
22930;BME280;11630;42.660;23.292;2022-09-17T07:29:31;69979.01;;;22.03;100.00
22930;BME280;11630;42.660;23.292;2022-09-17T07:32:02;70006.74;;;22.29;100.00
22930;BME280;11630;42.660;23.292;2022-09-17T07:34:32;69996.59;;;22.16;100.00
22930;BME280;11630;42.660;23.292;2022-09-17T07:37:03;69959.48;;;21.86;100.00
22930;BME280;11630;42.660;23.292;2022-09-17T07:39:34;69979.24;;;22.07;100.00
22930;BME280;11630;42.660;23.292;2022-09-17T07:42:05;70028.97;;;22.53;100.00
22930;BME280;11630;42.660;23.292;2022-09-17T07:44:36;69999.53;;;22.33;100.00
22930;BME280;11630;42.660;23.292;2022-09-17T07:47:07;70121.48;;;23.22;100.00
22930;BME280;11630;42.660;23.292;2022-09-17T07:49:37;70121.48;;;23.22;100.00
22930;BME280;11630;42.660;23.292;2022-09-17T07:52:08;70142.12;;;23.39;100.00
22930;BME280;11630;42.660;23.292;2022-09-17T07:54:39;70141.66;;;23.57;100.00
22930;BME280;11630;42.660;23.292;2022-09-17T07:57:09;70124.83;;;23.20;100.00
22930;BME280;11630;42.660;23.292;2022-09-17T07:59:41;70163.48;;;23.68;100.00
22930;BME280;11630;42.660;23.292;2022-09-17T08:02:15;70186.09;;;23.84;100.00
22930;BME280;11630;42.660;23.292;2022-09-17T08:04:45;70144.30;;;23.43;100.00
22930;BME280;11630;42.660;23.292;2022-09-17T08:07:16;70135.13;;;23.46;100.00
22930;BME280;11630;42.660;23.292;2022-09-17T08:09:46;70083.97;;;23.03;100.00
22930;BME280;11630;42.660;23.292;2022-09-17T08:12:17;70158.91;;;23.53;100.00
22930;BME280;11630;42.660;23.292;2022-09-17T08:14:48;70066.92;;;22.85;100.00
22930;BME280;11630;42.660;23.292;2022-09-17T08:17:19;70056.00;;;22.67;100.00
22930;BME280;11630;42.660;23.292;2022-09-17T08:19:50;70072.63;;;22.96;100.00
22930;BME280;11630;42.660;23.292;2022-09-17T08:22:21;70087.28;;;23.01;100.00
22930;BME280;11630;42.660;23.292;2022-09-17T08:24:51;70092.91;;;22.91;100.00
22930;BME280;11630;42.660;23.292;2022-09-17T08:27:21;70071.16;;;22.75;100.00
22930;BME280;11630;42.660;23.292;2022-09-17T08:29:52;70073.77;;;22.95;100.00
22930;BME280;11630;42.660;23.292;2022-09-17T08:32:24;70200.77;;;23.88;100.00
22930;BME280;11630;42.660;23.292;2022-09-17T08:34:54;70248.69;;;24.29;100.00
22930;BME280;11630;42.660;23.292;2022-09-17T08:37:30;70147.66;;;23.39;100.00
22930;BME280;11630;42.660;23.292;2022-09-17T08:40:00;70161.36;;;23.56;100.00
22930;BME280;11630;42.660;23.292;2022-09-17T08:42:45;70130.00;;;23.30;100.00
22930;BME280;11630;42.660;23.292;2022-09-17T08:45:12;70132.63;;;23.45;100.00
22930;BME280;11630;42.660;23.292;2022-09-17T08:47:43;70167.02;;;23.78;100.00
22930;BME280;11630;42.660;23.292;2022-09-17T08:50:26;70206.85;;;23.91;100.00
22930;BME280;11630;42.660;23.292;2022-09-17T08:55:50;70125.27;;;23.32;100.00
22930;BME280;11630;42.660;23.292;2022-09-17T08:58:39;70107.42;;;23.13;100.00
22930;BME280;11630;42.660;23.292;2022-09-17T09:04:22;70097.31;;;22.95;100.00
22930;BME280;11630;42.660;23.292;2022-09-17T09:06:51;70051.58;;;22.66;100.00
22930;BME280;11630;42.660;23.292;2022-09-17T09:09:23;70067.80;;;22.82;100.00
22930;BME280;11630;42.660;23.292;2022-09-17T09:11:58;70000.75;;;22.16;100.00
22930;BME280;11630;42.660;23.292;2022-09-17T09:14:40;70035.38;;;22.50;100.00
22930;BME280;11630;42.660;23.292;2022-09-17T09:17:08;69999.05;;;22.22;100.00
22930;BME280;11630;42.660;23.292;2022-09-17T09:19:44;70025.48;;;22.41;100.00
22930;BME280;11630;42.660;23.292;2022-09-17T09:22:44;70040.14;;;22.43;100.00
22930;BME280;11630;42.660;23.292;2022-09-17T09:25:26;70038.45;;;22.47;100.00
22930;BME280;11630;42.660;23.292;2022-09-17T09:33:42;70022.28;;;22.23;100.00
22930;BME280;11630;42.660;23.292;2022-09-17T09:36:13;69962.79;;;21.89;100.00
22930;BME280;11630;42.660;23.292;2022-09-17T09:41:44;70007.13;;;22.16;100.00
22930;BME280;11630;42.660;23.292;2022-09-17T09:44:16;69980.63;;;22.07;100.00
22930;BME280;11630;42.660;23.292;2022-09-17T09:50:01;69907.59;;;21.36;100.00
22930;BME280;11630;42.660;23.292;2022-09-17T09:58:35;69878.41;;;21.22;100.00
22930;BME280;11630;42.660;23.292;2022-09-17T10:01:16;69843.68;;;20.69;100.00
22930;BME280;11630;42.660;23.292;2022-09-17T10:03:51;69850.23;;;20.85;100.00
22930;BME280;11630;42.660;23.292;2022-09-17T10:06:27;69823.02;;;20.64;100.00
22930;BME280;11630;42.660;23.292;2022-09-17T10:12:03;69793.39;;;20.37;100.00
22930;BME280;11630;42.660;23.292;2022-09-17T10:14:35;69812.59;;;20.55;100.00
22930;BME280;11630;42.660;23.292;2022-09-17T10:17:17;69762.70;;;20.05;100.00
22930;BME280;11630;42.660;23.292;2022-09-17T10:22:40;69780.88;;;20.11;100.00
22930;BME280;11630;42.660;23.292;2022-09-17T10:25:23;69754.39;;;20.09;100.00
22930;BME280;11630;42.660;23.292;2022-09-17T10:27:53;69795.34;;;20.35;100.00
22930;BME280;11630;42.660;23.292;2022-09-17T10:30:24;69774.27;;;20.08;100.00
22930;BME280;11630;42.660;23.292;2022-09-17T10:33:21;69748.39;;;20.02;100.00
22930;BME280;11630;42.660;23.292;2022-09-17T10:36:11;69726.94;;;19.87;100.00
22930;BME280;11630;42.660;23.292;2022-09-17T10:38:41;69752.25;;;20.00;100.00
22930;BME280;11630;42.660;23.292;2022-09-17T10:41:18;69762.14;;;20.07;100.00
22930;BME280;11630;42.660;23.292;2022-09-17T10:43:52;69786.00;;;20.29;100.00
22930;BME280;11630;42.660;23.292;2022-09-17T10:46:30;69765.42;;;20.09;100.00
22930;BME280;11630;42.660;23.292;2022-09-17T10:49:11;69784.90;;;20.28;100.00
22930;BME280;11630;42.660;23.292;2022-09-17T10:51:42;69740.43;;;19.91;100.00
22930;BME280;11630;42.660;23.292;2022-09-17T10:57:09;69719.29;;;19.78;100.00
22930;BME280;11630;42.660;23.292;2022-09-17T11:00:14;69750.05;;;20.01;100.00
22930;BME280;11630;42.660;23.292;2022-09-17T11:03:17;69729.20;;;19.79;100.00
22930;BME280;11630;42.660;23.292;2022-09-17T11:11:09;69796.66;;;20.43;100.00
22930;BME280;11630;42.660;23.292;2022-09-17T11:22:29;69768.94;;;20.21;100.00
22930;BME280;11630;42.660;23.292;2022-09-17T11:30:47;69784.36;;;20.25;100.00
22930;BME280;11630;42.660;23.292;2022-09-17T11:35:59;69800.02;;;20.38;100.00
22930;BME280;11630;42.660;23.292;2022-09-17T11:38:49;69793.89;;;20.45;100.00
22930;BME280;11630;42.660;23.292;2022-09-17T11:41:30;69773.34;;;20.23;100.00
22930;BME280;11630;42.660;23.292;2022-09-17T11:44:31;69749.77;;;20.02;100.00
22930;BME280;11630;42.660;23.292;2022-09-17T11:47:36;69747.53;;;20.05;100.00
22930;BME280;11630;42.660;23.292;2022-09-17T11:49:53;69773.17;;;20.07;100.00
22930;BME280;11630;42.660;23.292;2022-09-17T11:52:26;69765.36;;;20.19;100.00
22930;BME280;11630;42.660;23.292;2022-09-17T11:54:58;69732.16;;;19.91;100.00
22930;BME280;11630;42.660;23.292;2022-09-17T11:57:32;69737.95;;;19.90;100.00
22930;BME280;11630;42.660;23.292;2022-09-17T12:00:11;69750.91;;;19.95;100.00
22930;BME280;11630;42.660;23.292;2022-09-17T12:02:56;69752.77;;;20.06;100.00
22930;BME280;11630;42.660;23.292;2022-09-17T12:08:36;69765.41;;;20.14;100.00
22930;BME280;11630;42.660;23.292;2022-09-17T12:11:22;69777.73;;;20.27;100.00
22930;BME280;11630;42.660;23.292;2022-09-17T12:14:00;69816.35;;;20.68;100.00
22930;BME280;11630;42.660;23.292;2022-09-17T12:16:39;69813.67;;;20.58;100.00
22930;BME280;11630;42.660;23.292;2022-09-17T12:19:33;69824.94;;;20.65;100.00
22930;BME280;11630;42.660;23.292;2022-09-17T12:22:36;69836.77;;;20.77;100.00
22930;BME280;11630;42.660;23.292;2022-09-17T12:24:52;69836.45;;;20.80;100.00
22930;BME280;11630;42.660;23.292;2022-09-17T12:27:44;69871.11;;;20.99;100.00
22930;BME280;11630;42.660;23.292;2022-09-17T12:30:15;69875.41;;;21.18;100.00
22930;BME280;11630;42.660;23.292;2022-09-17T12:53:28;69865.55;;;21.06;100.00
22930;BME280;11630;42.660;23.292;2022-09-17T12:55:24;69850.72;;;20.93;100.00
22930;BME280;11630;42.660;23.292;2022-09-17T12:58:06;69835.03;;;20.85;100.00
22930;BME280;11630;42.660;23.292;2022-09-17T13:00:51;69838.42;;;20.76;100.00
22930;BME280;11630;42.660;23.292;2022-09-17T13:09:35;69786.48;;;20.40;100.00
22930;BME280;11630;42.660;23.292;2022-09-17T13:18:04;69824.89;;;20.72;100.00
22930;BME280;11630;42.660;23.292;2022-09-17T13:21:02;69815.84;;;20.65;100.00
22930;BME280;11630;42.660;23.292;2022-09-17T13:23:45;69834.92;;;20.59;100.00
22930;BME280;11630;42.660;23.292;2022-09-17T13:26:17;69805.91;;;20.61;100.00
22930;BME280;11630;42.660;23.292;2022-09-17T13:28:52;69825.26;;;20.59;100.00
22930;BME280;11630;42.660;23.292;2022-09-17T13:36:50;69854.13;;;20.81;100.00
22930;BME280;11630;42.660;23.292;2022-09-17T13:39:41;69832.05;;;20.74;100.00
22930;BME280;11630;42.660;23.292;2022-09-17T13:42:21;69846.34;;;20.87;100.00
22930;BME280;11630;42.660;23.292;2022-09-17T13:45:08;69877.46;;;21.01;100.00
22930;BME280;11630;42.660;23.292;2022-09-17T13:47:51;69864.31;;;20.84;100.00
22930;BME280;11630;42.660;23.292;2022-09-17T13:50:23;69851.33;;;20.86;100.00
22930;BME280;11630;42.660;23.292;2022-09-17T13:52:46;69854.83;;;21.00;100.00
22930;BME280;11630;42.660;23.292;2022-09-17T13:55:40;69856.48;;;20.99;100.00
22930;BME280;11630;42.660;23.292;2022-09-17T14:08:49;69900.98;;;21.32;100.00
22930;BME280;11630;42.660;23.292;2022-09-17T14:16:38;69753.33;;;20.04;100.00
22930;BME280;11630;42.660;23.292;2022-09-17T14:19:19;69698.23;;;19.50;100.00
22930;BME280;11630;42.660;23.292;2022-09-17T14:24:45;69687.49;;;19.46;100.00
22930;BME280;11630;42.660;23.292;2022-09-17T14:30:28;69702.02;;;19.61;100.00
22930;BME280;11630;42.660;23.292;2022-09-17T14:35:48;69709.97;;;19.67;100.00
22930;BME280;11630;42.660;23.292;2022-09-17T14:38:37;69746.00;;;19.81;100.00
22930;BME280;11630;42.660;23.292;2022-09-17T14:46:35;69731.06;;;19.90;100.00
22930;BME280;11630;42.660;23.292;2022-09-17T14:49:25;69694.85;;;19.62;100.00
22930;BME280;11630;42.660;23.292;2022-09-17T14:52:06;69769.22;;;20.20;100.00
22930;BME280;11630;42.660;23.292;2022-09-17T14:54:30;69733.00;;;19.90;100.00
22930;BME280;11630;42.660;23.292;2022-09-17T14:59:58;69764.27;;;20.18;100.00
22930;BME280;11630;42.660;23.292;2022-09-17T15:02:40;69763.45;;;20.16;100.00
22930;BME280;11630;42.660;23.292;2022-09-17T15:05:15;69758.25;;;20.10;100.00
22930;BME280;11630;42.660;23.292;2022-09-17T15:07:47;69721.77;;;19.76;100.00
22930;BME280;11630;42.660;23.292;2022-09-17T15:10:19;69678.13;;;19.48;100.00
22930;BME280;11630;42.660;23.292;2022-09-17T15:12:50;69746.84;;;19.80;100.00
22930;BME280;11630;42.660;23.292;2022-09-17T15:15:22;69787.34;;;20.34;100.00
22930;BME280;11630;42.660;23.292;2022-09-17T15:17:54;69711.63;;;19.66;100.00
22930;BME280;11630;42.660;23.292;2022-09-17T15:20:28;69689.17;;;19.45;100.00
22930;BME280;11630;42.660;23.292;2022-09-17T15:23:18;69666.66;;;19.30;100.00
22930;BME280;11630;42.660;23.292;2022-09-17T15:25:49;69684.75;;;19.44;100.00
22930;BME280;11630;42.660;23.292;2022-09-17T15:28:38;69689.97;;;19.50;100.00
22930;BME280;11630;42.660;23.292;2022-09-17T15:31:05;69684.28;;;19.31;100.00
22930;BME280;11630;42.660;23.292;2022-09-17T15:33:36;69673.23;;;19.36;100.00
22930;BME280;11630;42.660;23.292;2022-09-17T15:38:46;69706.71;;;19.59;100.00
22930;BME280;11630;42.660;23.292;2022-09-17T15:41:36;69685.85;;;19.45;100.00
22930;BME280;11630;42.660;23.292;2022-09-17T15:44:13;69667.80;;;19.24;100.00
22930;BME280;11630;42.660;23.292;2022-09-17T15:46:43;69636.20;;;19.09;100.00
22930;BME280;11630;42.660;23.292;2022-09-17T15:49:33;69653.23;;;19.19;100.00
22930;BME280;11630;42.660;23.292;2022-09-17T15:52:34;69660.13;;;19.14;100.00
22930;BME280;11630;42.660;23.292;2022-09-17T15:55:05;69656.50;;;19.22;100.00
22930;BME280;11630;42.660;23.292;2022-09-17T15:57:36;69684.55;;;19.35;100.00
22930;BME280;11630;42.660;23.292;2022-09-17T16:00:14;69686.39;;;19.48;100.00
22930;BME280;11630;42.660;23.292;2022-09-17T16:02:48;69680.64;;;19.41;100.00